Flood From: 22-02-2018 06:00 Until: 23-02-2018 06:00 warning for: Flood Level: Yellow info button

Although rather usual in this region, locally or potentially dangerous phenomena are expected. (such as local winds, summer thunderstorms, rising streams or high waves) Be aware and pay attention to the latest weather updates, especially if you carry out activities exposed to weather or close to a stream or shoreline. 


Meteo18 Weather Cam more information Meteo18 Weather Cam


Thunder radar more information blitzortung!


Rain radar more information rain snow radar


Visit our other weather sites:

Template documentation
and downloads

And another site



Weather Underground History page Text

Daily Summary for June 27, 2017 Units:  Metric    English   Both
« Previous Day
Next Day »
Daily Weekly Monthly Yearly Custom
  High: Low: Average:
Temperature: -17.8 °C -8.8 °C -6.7 °C
Dew Point: -17.8 °C -9.2 °C -8.2 °C
Humidity: Humidity % 64 % 84 %
Wind Speed: 0 km/h 0 km/h 7.6 km/h
Wind Gust: 0 km/h - -
Wind:- - SSW
Pressure: 0 hPa 33958.2 hPa -
Precipitation: 58.42 mm    
Historical Graphs
 
 
Tabular Data for June 27, 2017
Time Temperature Dew Point Pressure Wind Wind Speed Wind Gust Humidity Rainfall Rate (Hourly)
-17.8 °C -17.8 °C 0 hPa Calm     Humidity % 0 mm
00:02 -7.8 °C -8.4 °C 34246 hPa Calm     94 % 0 mm
00:12 -7.8 °C -8.3 °C 34246 hPa Calm     95 % 0 mm
00:17 -7.9 °C -8.4 °C 34246 hPa Calm     94 % 0 mm
00:22 -7.9 °C -8.4 °C 34235.8 hPa Calm     94 % 0 mm
00:32 -7.9 °C -8.4 °C 34235.8 hPa Calm     95 % 0 mm
00:42 -8 °C -8.4 °C 34235.8 hPa Calm     95 % 0 mm
00:52 -8.1 °C -8.7 °C 34235.8 hPa Calm     94 % 0 mm
00:57 -8.1 °C -8.6 °C 34235.8 hPa Calm     95 % 0 mm
01:02 -8.2 °C -8.6 °C 34235.8 hPa Calm     95 % 0 mm
01:12 -8.2 °C -8.6 °C 34222.3 hPa Calm     95 % 0 mm
01:17 -8.2 °C -8.6 °C 34222.3 hPa Calm     95 % 0 mm
01:22 -8.2 °C -8.6 °C 34222.3 hPa Calm     95 % 0 mm
01:27 -8.2 °C -8.7 °C 34222.3 hPa Calm     95 % 0 mm
01:32 -8.3 °C -8.7 °C 34222.3 hPa Calm     95 % 0 mm
01:37 -8.3 °C -8.7 °C 34222.3 hPa Calm     95 % 0 mm
01:42 -8.3 °C -8.8 °C 34222.3 hPa Calm     95 % 0 mm
01:52 -8.4 °C -8.7 °C 34222.3 hPa Calm     96 % 0 mm
01:57 -8.3 °C -8.6 °C 34222.3 hPa Calm     96 % 0 mm
02:02 -8.2 °C -8.5 °C 34212.1 hPa NNE 5.1 km/h   96 % 0 mm
02:12 -8.6 °C -9.1 °C 34212.1 hPa Calm   5.1 km/h 94 % 0 mm
02:17 -8.6 °C -8.9 °C 34212.1 hPa Calm   5.1 km/h 96 % 0 mm
02:22 -8.6 °C -9 °C 34212.1 hPa Calm   5.1 km/h 95 % 0 mm
02:27 -8.6 °C -8.9 °C 34212.1 hPa Calm   5.1 km/h 96 % 0 mm
02:32 -8.6 °C -9 °C 34212.1 hPa Calm   5.1 km/h 95 % 0 mm
02:37 -8.6 °C -9.1 °C 34198.6 hPa Calm     95 % 0 mm
02:42 -8.7 °C -9.1 °C 34198.6 hPa Calm     95 % 0 mm
02:47 -8.7 °C -9.2 °C 34198.6 hPa Calm     95 % 0 mm
02:52 -8.8 °C -9.1 °C 34198.6 hPa Calm     96 % 0 mm
02:57 -8.7 °C -9.1 °C 34198.6 hPa Calm     96 % 0 mm
03:02 -8.7 °C -9.1 °C 34198.6 hPa Calm     96 % 0 mm
03:12 -8.8 °C -9.1 °C 34212.1 hPa WNW 5.1 km/h   96 % 0 mm
03:17 -8.8 °C -9.2 °C 34212.1 hPa Calm   7.7 km/h 96 % 0 mm
03:22 -8.8 °C -9.1 °C 34212.1 hPa Calm   7.7 km/h 96 % 0 mm
03:27 -8.8 °C -9.1 °C 34212.1 hPa Calm   7.7 km/h 96 % 0 mm
03:32 -8.8 °C -9.1 °C 34198.6 hPa Calm   7.7 km/h 96 % 0 mm
03:42 -8.7 °C -9.1 °C 34198.6 hPa Calm   2.6 km/h 96 % 0 mm
03:47 -8.7 °C -9.1 °C 34198.6 hPa NE 2.6 km/h   96 % 0 mm
03:52 -8.7 °C -9.1 °C 34198.6 hPa Calm     96 % 0 mm
04:02 -8.7 °C -9.1 °C 34188.4 hPa NNE 5.1 km/h 5.1 km/h 96 % 0 mm
04:12 -8.8 °C -9.2 °C 34188.4 hPa Calm   7.7 km/h 96 % 0 mm
04:17 -8.8 °C -9.2 °C 34188.4 hPa Calm   7.7 km/h 96 % 0 mm
04:22 -8.8 °C -9.2 °C 34188.4 hPa Calm   7.7 km/h 96 % 0 mm
04:32 -8.8 °C -9.2 °C 34188.4 hPa Calm     96 % 0 mm
04:42 -8.8 °C -9.2 °C 34188.4 hPa Calm     96 % 0 mm
04:47 -8.8 °C -9.1 °C 34188.4 hPa Calm     96 % 0 mm
04:52 -8.7 °C -9.1 °C 34178.3 hPa Calm     96 % 0 mm
04:57 -8.7 °C -9 °C 34188.4 hPa Calm     96 % 0 mm
05:02 -8.7 °C -9 °C 34188.4 hPa Calm     96 % 0 mm
05:07 -8.7 °C -9 °C 34188.4 hPa Calm     96 % 0 mm
05:12 -8.7 °C -9 °C 34178.3 hPa Calm     96 % 0 mm
05:17 -8.6 °C -8.9 °C 34178.3 hPa Calm     96 % 0 mm
05:22 -8.5 °C -8.8 °C 34178.3 hPa Calm     97 % 0 mm
05:32 -8.5 °C -8.8 °C 34178.3 hPa Calm     96 % 0 mm
05:42 -8.5 °C -8.8 °C 34178.3 hPa Calm     96 % 0 mm
05:47 -8.5 °C -8.8 °C 34178.3 hPa Calm     96 % 0 mm
05:52 -8.4 °C -8.8 °C 34178.3 hPa Calm     96 % 0 mm
06:02 -8.5 °C -8.8 °C 34178.3 hPa Calm     96 % 0 mm
06:12 -8.6 °C -8.9 °C 34178.3 hPa Calm     96 % 0 mm
06:17 -8.6 °C -8.9 °C 34178.3 hPa Calm     96 % 0 mm
06:22 -8.6 °C -8.9 °C 34178.3 hPa Calm     96 % 0 mm
06:32 -8.6 °C -8.9 °C 34178.3 hPa Calm     96 % 0 mm
06:42 -8.7 °C -9 °C 34178.3 hPa Calm     96 % 0 mm
06:47 -8.7 °C -9 °C 34178.3 hPa Calm     96 % 0 mm
06:52 -8.7 °C -9 °C 34178.3 hPa Calm     96 % 0 mm
06:57 -8.7 °C -9 °C 34178.3 hPa Calm     96 % 0 mm
07:02 -8.7 °C -9.1 °C 34178.3 hPa Calm     96 % 0 mm
07:12 -8.7 °C -9.1 °C 34178.3 hPa Calm     96 % 0 mm
07:17 -8.7 °C -9 °C 34178.3 hPa Calm     97 % 0 mm
07:22 -8.7 °C -8.9 °C 34178.3 hPa Calm     97 % 0 mm
07:32 -8.6 °C -8.9 °C 34178.3 hPa SSW 2.6 km/h   96 % 0 mm
07:37 -8.4 °C -8.7 °C 34178.3 hPa Calm   5.1 km/h 97 % 0 mm
07:42 -8.3 °C -8.6 °C 34164.7 hPa Calm   5.1 km/h 97 % 0 mm
07:47 -8.2 °C -8.5 °C 34178.3 hPa SSW 2.6 km/h 5.1 km/h 96 % 0 mm
07:52 -8.1 °C -8.4 °C 34164.7 hPa SSW 2.6 km/h 5.1 km/h 96 % 0 mm
08:02 -7.9 °C -8.3 °C 34178.3 hPa WSW 12.9 km/h 12.9 km/h 96 % 0 mm
08:07 -7.8 °C -8.2 °C 34178.3 hPa SW 10.3 km/h 20.8 km/h 96 % 0 mm
08:12 -7.7 °C -8 °C 34178.3 hPa South 7.7 km/h 20.8 km/h 96 % 0 mm
08:17 -7.6 °C -8.1 °C 34178.3 hPa SSW 5.1 km/h 20.8 km/h 95 % 0 mm
08:22 -7.5 °C -8.1 °C 34178.3 hPa SSW 5.1 km/h 20.8 km/h 94 % 0 mm
08:32 -7.3 °C -7.9 °C 34164.7 hPa SW 7.7 km/h 20.8 km/h 93 % 0 mm
08:42 -7.1 °C -7.9 °C 34164.7 hPa SW 10.3 km/h 18.2 km/h 91 % 0 mm
08:47 -6.9 °C -7.6 °C 34164.7 hPa SW 10.3 km/h 15.6 km/h 92 % 0 mm
08:52 -6.8 °C -7.6 °C 34164.7 hPa SSW 7.7 km/h 15.6 km/h 91 % 0 mm
09:02 -6.7 °C -7.8 °C 34164.7 hPa SW 12.9 km/h 15.6 km/h 88 % 0 mm
09:12 -6.6 °C -7.8 °C 34164.7 hPa SSW 5.1 km/h 23.3 km/h 87 % 7.62 mm
09:17 -6.4 °C -7.9 °C 34164.7 hPa SSW 15.6 km/h 28.5 km/h 85 % 7.62 mm
09:22 -6.4 °C -7.9 °C 34164.7 hPa SW 18.2 km/h 28.5 km/h 85 % 7.62 mm
09:32 -6.3 °C -7.8 °C 34164.7 hPa South 15.6 km/h 28.5 km/h 85 % 7.62 mm
09:37 -6.3 °C -7.7 °C 34164.7 hPa SSE 10.3 km/h 25.9 km/h 85 % 7.62 mm
09:42 -6.3 °C -8 °C 34164.7 hPa SW 7.7 km/h 25.9 km/h 83 % 7.62 mm
09:52 -6.2 °C -7.8 °C 34164.7 hPa SSW 7.7 km/h 25.9 km/h 83 % 7.62 mm
10:02 -6.1 °C -7.8 °C 34164.7 hPa SSW 20.8 km/h 23.3 km/h 82 % 7.62 mm
10:12 -5.9 °C -7.7 °C 34164.7 hPa South 7.7 km/h 20.8 km/h 82 % 0 mm
10:17 -5.7 °C -7.7 °C 34164.7 hPa SSW 18.2 km/h 28.5 km/h 80 % 0 mm
10:22 -5.7 °C -7.9 °C 34154.6 hPa SSW 23.3 km/h 28.5 km/h 78 % 0 mm
10:32 -5.5 °C -7.8 °C 34154.6 hPa SW 10.3 km/h 28.5 km/h 77 % 0 mm
10:42 -5.3 °C -7.9 °C 34154.6 hPa SW 18.2 km/h 28.5 km/h 75 % 0 mm
10:47 -5.2 °C -7.8 °C 34154.6 hPa SW 5.1 km/h 25.9 km/h 75 % 0 mm
10:52 -5.1 °C -7.9 °C 34154.6 hPa SE 10.3 km/h 25.9 km/h 73 % 0 mm
10:57 -4.9 °C -7.7 °C 34154.6 hPa SSE 12.9 km/h 28.5 km/h 74 % 0 mm
11:02 -4.9 °C -8 °C 34154.6 hPa SW 23.3 km/h 28.5 km/h 71 % 0 mm
11:17 -4.7 °C -7.7 °C 34144.4 hPa WSW 25.9 km/h 36.2 km/h 72 % 0 mm
11:22 -4.8 °C -7.9 °C 34144.4 hPa SW 12.9 km/h 36.2 km/h 71 % 0 mm
11:32 -4.9 °C -8 °C 34144.4 hPa SSW 12.9 km/h 33.6 km/h 71 % 0 mm
11:37 -4.9 °C -8 °C 34144.4 hPa WSW 18.2 km/h 31.1 km/h 71 % 0 mm
11:42 -4.9 °C -8 °C 34144.4 hPa SW 15.6 km/h 31.1 km/h 71 % 0 mm
11:47 -4.9 °C -8.2 °C 34144.4 hPa SW 18.2 km/h 33.6 km/h 69 % 0 mm
11:52 -4.9 °C -8.3 °C 34144.4 hPa WSW 5.1 km/h 33.6 km/h 69 % 0 mm
12:02 -4.8 °C -8.2 °C 34144.4 hPa WSW 15.6 km/h 33.6 km/h 69 % 0 mm
12:12 -4.8 °C -8.1 °C 34130.9 hPa SW 18.2 km/h 25.9 km/h 69 % 0 mm
12:17 -4.9 °C -8.2 °C 34130.9 hPa SSW 10.3 km/h 28.5 km/h 69 % 0 mm
12:22 -4.9 °C -8.2 °C 34130.9 hPa SW 12.9 km/h 28.5 km/h 69 % 0 mm
12:32 -4.8 °C -7.8 °C 34130.9 hPa SSW 7.7 km/h 36.2 km/h 72 % 0 mm
12:37 -4.9 °C -7.7 °C 34130.9 hPa SSW 12.9 km/h 36.2 km/h 73 % 0 mm
12:42 -4.9 °C -7.7 °C 34130.9 hPa SSW 20.8 km/h 28.5 km/h 73 % 0 mm
12:47 -4.8 °C -7.6 °C 34130.9 hPa South 20.8 km/h 28.5 km/h 74 % 0 mm
12:52 -4.8 °C -7.7 °C 34130.9 hPa WSW 20.8 km/h 28.5 km/h 73 % 0 mm
12:57 -4.8 °C -7.5 °C 34130.9 hPa SSW 10.3 km/h 31.1 km/h 74 % 0 mm
13:02 -4.8 °C -7.7 °C 34120.7 hPa SW 5.1 km/h 31.1 km/h 73 % 0 mm
13:12 -5.1 °C -7.7 °C 34120.7 hPa SE 2.6 km/h 23.3 km/h 75 % 0 mm
13:17 -5.1 °C -7.8 °C 34120.7 hPa SSW 7.7 km/h 23.3 km/h 74 % 0 mm
13:27 -5.1 °C -7.6 °C 34107.2 hPa SW 2.6 km/h 20.8 km/h 76 % 0 mm
13:32 -4.7 °C -7.4 °C 34107.2 hPa South 15.6 km/h 20.8 km/h 74 % 0 mm
13:42 -4.5 °C -8 °C 34107.2 hPa SW 12.9 km/h 28.5 km/h 68 % 0 mm
13:47 -4.4 °C -7.6 °C 34107.2 hPa SSW 23.3 km/h 28.5 km/h 71 % 0 mm
13:52 -4.4 °C -7.6 °C 34107.2 hPa SW 12.9 km/h 25.9 km/h 70 % 0 mm
13:57 -4.1 °C -7.5 °C 34097 hPa SSE 5.1 km/h 25.9 km/h 69 % 0 mm
14:02 -3.8 °C -7.7 °C 34097 hPa South 15.6 km/h 28.5 km/h 65 % 0 mm
14:12 -4 °C -8.1 °C 34086.9 hPa SW 7.7 km/h 31.1 km/h 64 % 0 mm
14:17 -4.1 °C -7.9 °C 34086.9 hPa SSE 7.7 km/h 31.1 km/h 65 % 0 mm
14:22 -4.1 °C -7.9 °C 34086.9 hPa WSW 5.1 km/h 31.1 km/h 65 % 0 mm
14:27 -4.2 °C -7.8 °C 34086.9 hPa West 7.7 km/h 18.2 km/h 67 % 0 mm
14:32 -5.1 °C -7.6 °C 34086.9 hPa West 25.9 km/h 25.9 km/h 76 % 0 mm
14:37 -5.7 °C -7.6 °C 34086.9 hPa NW 7.7 km/h 49.2 km/h 81 % 20.32 mm
14:42 -5.9 °C -7.7 °C 34086.9 hPa WNW 2.6 km/h 49.2 km/h 82 % 20.32 mm
14:47 -6.1 °C -7.6 °C 34086.9 hPa WNW 10.3 km/h 49.2 km/h 84 % 25.4 mm
14:52 -6.3 °C -7.5 °C 34086.9 hPa WNW 5.1 km/h 33.6 km/h 87 % 25.4 mm
14:57 -6.3 °C -7.5 °C 34086.9 hPa Calm   20.8 km/h 87 % 58.42 mm
15:02 -6.1 °C -7.1 °C 34073.3 hPa NE 2.6 km/h 20.8 km/h 89 % 58.42 mm
15:12 -5.7 °C -6.9 °C 34073.3 hPa NNE 5.1 km/h 12.9 km/h 87 % 58.42 mm
15:17 -5.5 °C -7.2 °C 34073.3 hPa Calm   10.3 km/h 83 % 58.42 mm
15:27 -5.2 °C -6.7 °C 34073.3 hPa NE 7.7 km/h 10.3 km/h 85 % 50.8 mm
15:32 -5.3 °C -7.1 °C 34063.2 hPa NNE 2.6 km/h 10.3 km/h 82 % 50.8 mm
15:37 -5.2 °C -6.9 °C 34063.2 hPa NE 10.3 km/h 12.9 km/h 82 % 38.1 mm
15:42 -4.9 °C -7 °C 34063.2 hPa ENE 5.1 km/h 12.9 km/h 79 % 38.1 mm
15:47 -4.6 °C -6.7 °C 34063.2 hPa NE 2.6 km/h 15.6 km/h 80 % 33.02 mm
15:52 -4.5 °C -7 °C 34049.6 hPa NE 5.1 km/h 15.6 km/h 76 % 33.02 mm
15:57 -4.5 °C -7.1 °C 34049.6 hPa NE 5.1 km/h 15.6 km/h 75 % 0 mm
16:02 -4.4 °C -6.9 °C 34049.6 hPa ENE 5.1 km/h 15.6 km/h 76 % 0 mm
16:12 -4.1 °C -7.3 °C 34049.6 hPa SW 2.6 km/h 15.6 km/h 70 % 0 mm
16:17 -3.8 °C -7.1 °C 34049.6 hPa Calm   12.9 km/h 70 % 0 mm
16:22 -3.9 °C -7.2 °C 34039.5 hPa East 15.6 km/h 15.6 km/h 70 % 0 mm
16:32 -4.1 °C -7.3 °C 34039.5 hPa East 7.7 km/h 18.2 km/h 70 % 0 mm
16:37 -4.1 °C -7.3 °C 34039.5 hPa ENE 12.9 km/h 18.2 km/h 70 % 0 mm
16:42 -4.1 °C -7.2 °C 34039.5 hPa East 5.1 km/h 18.2 km/h 71 % 0 mm
16:52 -4 °C -7.2 °C 34039.5 hPa NE 5.1 km/h 15.6 km/h 70 % 0 mm
16:57 -4 °C -7.2 °C 34039.5 hPa ENE 12.9 km/h 18.2 km/h 70 % 0 mm
17:02 -4 °C -7.2 °C 34029.3 hPa ENE 12.9 km/h 18.2 km/h 70 % 0 mm
17:12 -4 °C -7.2 °C 34029.3 hPa East 12.9 km/h 18.2 km/h 70 % 0 mm
17:17 -4.1 °C -7.3 °C 34029.3 hPa East 5.1 km/h 18.2 km/h 70 % 0 mm
17:22 -4.1 °C -7.4 °C 34015.8 hPa ENE 5.1 km/h 18.2 km/h 69 % 0 mm
17:27 -4 °C -7.2 °C 34015.8 hPa Calm   15.6 km/h 70 % 0 mm
17:32 -4.1 °C -7.2 °C 34015.8 hPa West 7.7 km/h 15.6 km/h 71 % 0 mm
17:37 -4.1 °C -7.3 °C 34015.8 hPa SW 2.6 km/h 10.3 km/h 70 % 0 mm
17:42 -4.1 °C -7.3 °C 34015.8 hPa WSW 7.7 km/h 10.3 km/h 70 % 0 mm
17:47 -4.1 °C -7.1 °C 34005.6 hPa Calm   10.3 km/h 72 % 0 mm
17:57 -4.1 °C -7.2 °C 34005.6 hPa West 5.1 km/h 15.6 km/h 71 % 0 mm
18:07 -4.3 °C -7.8 °C 34005.6 hPa SW 12.9 km/h 31.1 km/h 68 % 0 mm
18:17 -4.4 °C -8.3 °C 34005.6 hPa West 10.3 km/h 31.1 km/h 65 % 0 mm
18:27 -4.4 °C -8.4 °C 34005.6 hPa SW 15.6 km/h 38.8 km/h 64 % 0 mm
18:32 -4.3 °C -8.3 °C 34005.6 hPa West 18.2 km/h 41.4 km/h 64 % 0 mm
18:37 -4.4 °C -8.3 °C 33992.1 hPa WSW 25.9 km/h 41.4 km/h 65 % 0 mm
18:42 -4.6 °C -8.2 °C 33992.1 hPa SW 7.7 km/h 51.8 km/h 67 % 0 mm
18:52 -4.9 °C -8.3 °C 33992.1 hPa SW 36.2 km/h 51.8 km/h 68 % 0 mm
18:57 -5 °C -8.3 °C 33992.1 hPa West 10.3 km/h 41.4 km/h 69 % 0 mm
19:02 -5.2 °C -8.4 °C 33981.9 hPa WSW 33.6 km/h 41.4 km/h 70 % 0 mm
19:07 -5.3 °C -8.2 °C 33971.7 hPa West 12.9 km/h 41.4 km/h 73 % 0 mm
19:12 -5.6 °C -8.1 °C 33971.7 hPa West 15.6 km/h 41.4 km/h 75 % 0 mm
19:17 -5.7 °C -8.1 °C 33958.2 hPa Calm   38.8 km/h 76 % 0 mm
19:22 -5.7 °C -8.2 °C 33958.2 hPa NW 5.1 km/h 38.8 km/h 76 % 0 mm
19:32 -5.8 °C -8.1 °C 33958.2 hPa Calm   20.8 km/h 77 % 0 mm
19:42 -5.9 °C -8.1 °C 33971.7 hPa Calm   10.3 km/h 78 % 0 mm
19:52 -5.9 °C -8.2 °C 33971.7 hPa Calm   10.3 km/h 78 % 0 mm
20:02 -5.9 °C -8.2 °C 33971.7 hPa Calm   10.3 km/h 78 % 0 mm
20:12 -6 °C -8.1 °C 33981.9 hPa Calm   7.7 km/h 79 % 0 mm
20:17 -6.1 °C -7.9 °C 33981.9 hPa Calm   7.7 km/h 81 % 0 mm
20:22 -6.2 °C -8.1 °C 33992.1 hPa East 12.9 km/h 12.9 km/h 81 % 0 mm
20:27 -6.3 °C -7.9 °C 33992.1 hPa SSE 5.1 km/h 18.2 km/h 83 % 0 mm
20:37 -6.4 °C -7.9 °C 34005.6 hPa SW 2.6 km/h 18.2 km/h 85 % 0 mm
20:42 -6.5 °C -7.9 °C 34005.6 hPa SSW 5.1 km/h 18.2 km/h 85 % 0 mm
20:47 -6.6 °C -7.9 °C 34005.6 hPa SSW 10.3 km/h 12.9 km/h 86 % 0 mm
20:52 -6.6 °C -7.8 °C 34005.6 hPa SW 15.6 km/h 15.6 km/h 87 % 0 mm
20:57 -6.6 °C -7.8 °C 34005.6 hPa SW 12.9 km/h 25.9 km/h 87 % 0 mm
21:02 -6.7 °C -7.8 °C 34005.6 hPa SW 20.8 km/h 25.9 km/h 88 % 0 mm
21:12 -6.8 °C -7.9 °C 34005.6 hPa SSW 7.7 km/h 25.9 km/h 89 % 0 mm
21:22 -6.9 °C -8 °C 34015.8 hPa SSW 18.2 km/h 23.3 km/h 89 % 0 mm
21:32 -7 °C -7.9 °C 34029.3 hPa SW 18.2 km/h 33.6 km/h 90 % 0 mm
21:37 -7.1 °C -8 °C 34029.3 hPa SW 28.5 km/h 28.5 km/h 90 % 0 mm
21:47 -7.1 °C -7.9 °C 34015.8 hPa SSW 20.8 km/h 28.5 km/h 91 % 0 mm
21:52 -7.1 °C -7.9 °C 34015.8 hPa SW 12.9 km/h 28.5 km/h 91 % 0 mm
22:02 -7.1 °C -8.1 °C 33992.1 hPa SSW 12.9 km/h 28.5 km/h 90 % 0 mm
22:12 -7.2 °C -8.1 °C 33992.1 hPa SW 15.6 km/h 28.5 km/h 90 % 0 mm
22:17 -7.2 °C -8.1 °C 33992.1 hPa SSW 10.3 km/h 25.9 km/h 90 % 0 mm
22:22 -7.2 °C -8.2 °C 34005.6 hPa SW 7.7 km/h 25.9 km/h 90 % 0 mm
22:27 -7.3 °C -8.2 °C 34005.6 hPa SW 12.9 km/h 25.9 km/h 90 % 0 mm
22:32 -7.3 °C -8.2 °C 34005.6 hPa SSE 15.6 km/h 25.9 km/h 90 % 0 mm
22:37 -7.3 °C -8.2 °C 34015.8 hPa South 12.9 km/h 20.8 km/h 90 % 0 mm
22:42 -7.3 °C -8.3 °C 34015.8 hPa SSW 12.9 km/h 20.8 km/h 89 % 0 mm
22:52 -7.3 °C -8.4 °C 34029.3 hPa SW 15.6 km/h 20.8 km/h 88 % 0 mm
22:57 -7.3 °C -8.7 °C 34029.3 hPa SW 23.3 km/h 31.1 km/h 86 % 0 mm
23:02 -7.3 °C -8.8 °C 34029.3 hPa SW 18.2 km/h 31.1 km/h 85 % 0 mm
23:12 -7.3 °C -8.8 °C 34015.8 hPa WSW 23.3 km/h 33.6 km/h 85 % 0 mm
23:17 -7.3 °C -8.7 °C 34015.8 hPa SW 23.3 km/h 41.4 km/h 86 % 0 mm
23:22 -7.4 °C -8.7 °C 34015.8 hPa South 12.9 km/h 41.4 km/h 86 % 0 mm
23:27 -7.4 °C -8.8 °C 34005.6 hPa SW 23.3 km/h 38.8 km/h 86 % 0 mm
23:32 -7.5 °C -8.8 °C 34015.8 hPa South 12.9 km/h 38.8 km/h 86 % 0 mm
23:37 -7.6 °C -8.9 °C 34015.8 hPa SW 10.3 km/h 28.5 km/h 86 % 0 mm
23:42 -7.6 °C -9 °C 34015.8 hPa SW 15.6 km/h 28.5 km/h 85 % 0 mm
23:47 -7.6 °C -9.1 °C 34015.8 hPa SSW 5.1 km/h 28.5 km/h 84 % 0 mm
23:52 -7.6 °C -9.2 °C 34015.8 hPa SSW 12.9 km/h 28.5 km/h 83 % 0 mm
23:57 -7.6 °C -9.2 °C 34015.8 hPa WSW 25.9 km/h 31.1 km/h 83 % 0 mm
Meteo18
Compliments of Weather Underground - 4 mb

Script developed by  Jim McMurry - jmcmurry@mwt.net Adapted for the template by  Wim van der Kuil - Leuven-Template.eu

You find our weather info also at:

European Weather Network

Weather Underground

Equipment we use:

Weather-station
Davis Vue

Weather-program
Meteobridge

Weather-server
Raspberry PI 2 B+

Provider
1 and 1

Davis Vue

Meteobridge

Raspberry PI 2 B+

1 and 1